Time;durP1;ratioP1;P1;durP2;ratioP2;P2;SDS_P1;SDS_P2;PMS_P1;PMS_P2;Temp;Humidity;BMP_temperature;BMP_pressure;BME280_temperature;BME280_humidity;BME280_pressure;Samples;Min_cycle;Max_cycle;Signal;HPM_P1;HPM_P2
2023/08/26 00:02:24;;;;;;;1.53;1.50;;;21.90;99.90;;;22.36;100.00;99998.81;4974248;28;20674;-65
2023/08/26 00:04:51;;;;;;;1.73;1.67;;;21.90;99.90;;;22.40;100.00;100008.03;4969278;28;20866;-65
2023/08/26 00:07:18;;;;;;;1.57;1.47;;;21.90;99.90;;;22.41;99.04;99999.03;4967370;28;20671;-65
2023/08/26 00:09:45;;;;;;;1.90;1.80;;;22.00;99.90;;;22.42;98.59;99998.03;4965597;28;20658;-65
2023/08/26 00:12:12;;;;;;;1.77;1.57;;;21.90;99.90;;;22.42;99.10;99995.38;4967181;28;20742;-66
2023/08/26 00:14:39;;;;;;;1.97;1.87;;;21.90;99.90;;;22.40;99.84;100003.53;4965275;28;20742;-65
2023/08/26 00:17:06;;;;;;;4.93;2.30;;;21.90;99.90;;;22.42;100.00;99998.81;4969014;28;21222;-65
2023/08/26 00:19:33;;;;;;;3.10;1.93;;;21.90;99.90;;;22.44;100.00;99980.03;4967911;28;20663;-66
2023/08/26 00:22:04;;;;;;;2.43;2.20;;;22.00;99.90;;;22.50;100.00;99987.19;4969097;28;20667;-66
2023/08/26 00:24:32;;;;;;;1.63;1.57;;;22.00;99.90;;;22.51;100.00;99994.13;4965651;28;21291;-65
2023/08/26 00:26:59;;;;;;;1.87;1.77;;;22.00;99.90;;;22.51;100.00;99998.66;4967296;28;21324;-65
2023/08/26 00:29:26;;;;;;;1.40;1.30;;;22.00;99.90;;;22.49;100.00;100001.50;4967636;28;20738;-65
2023/08/26 00:31:53;;;;;;;1.67;1.57;;;22.00;99.90;;;22.43;100.00;99991.66;4968792;28;20682;-65
2023/08/26 00:34:20;;;;;;;6.77;1.67;;;22.00;99.90;;;22.41;100.00;99977.78;4965018;28;20643;-65
2023/08/26 00:36:47;;;;;;;1.80;1.70;;;21.90;99.90;;;22.38;100.00;99984.31;4968774;28;20750;-65
2023/08/26 00:39:14;;;;;;;4.47;2.30;;;21.90;99.90;;;22.38;100.00;99978.19;4966550;28;20639;-65
2023/08/26 00:41:41;;;;;;;2.13;2.00;;;21.90;99.90;;;22.42;100.00;99985.53;4975213;28;20750;-65
2023/08/26 00:44:09;;;;;;;2.00;1.83;;;21.90;99.90;;;22.43;100.00;99989.00;4968857;28;21208;-65
2023/08/26 00:46:36;;;;;;;5.43;2.30;;;21.90;99.90;;;22.41;100.00;99988.41;4966904;28;20639;-65
2023/08/26 00:49:03;;;;;;;1.80;1.70;;;21.90;99.90;;;22.40;100.00;99989.44;4966476;28;20639;-65
2023/08/26 00:51:31;;;;;;;2.20;2.03;;;21.90;99.90;;;22.35;100.00;99994.53;4967760;28;21036;-65
2023/08/26 00:53:59;;;;;;;2.07;1.70;;;21.90;99.90;;;22.35;100.00;99989.22;4969149;28;20729;-65
2023/08/26 00:56:26;;;;;;;2.00;1.90;;;21.90;99.90;;;22.37;100.00;99997.81;4962947;28;21263;-65
2023/08/26 00:58:53;;;;;;;1.80;1.70;;;21.90;99.90;;;22.40;100.00;100002.72;4969017;28;20957;-66
2023/08/26 01:01:20;;;;;;;4.23;2.10;;;21.90;99.90;;;22.48;100.00;100001.72;4966892;28;20658;-65
2023/08/26 01:03:47;;;;;;;3.80;2.17;;;22.00;99.90;;;22.50;100.00;100016.44;4966136;28;21470;-65
2023/08/26 01:06:14;;;;;;;2.00;1.87;;;22.00;99.90;;;22.55;100.00;100013.19;4964214;28;20647;-64
2023/08/26 01:08:41;;;;;;;2.00;1.90;;;22.00;99.90;;;22.57;100.00;100027.91;4962477;28;20768;-65
2023/08/26 01:11:32;;;;;;;2.50;2.30;;;22.10;99.90;;;22.61;100.00;100031.84;4965906;28;20749;-66
2023/08/26 01:14:09;;;;;;;1.97;1.87;;;22.10;99.90;;;22.64;100.00;100022.59;4966303;28;20635;-66
2023/08/26 01:16:39;;;;;;;2.00;1.90;;;22.10;99.90;;;22.69;100.00;100030.81;4964479;28;20677;-66
2023/08/26 01:19:35;;;;;;;2.40;2.20;;;22.20;99.90;;;22.73;100.00;100034.69;4966782;28;20709;-66
2023/08/26 01:22:08;;;;;;;1.93;1.87;;;22.20;99.90;;;22.75;100.00;100033.47;4965829;28;20655;-65
2023/08/26 01:24:39;;;;;;;2.30;2.20;;;22.30;99.90;;;22.80;100.00;100028.38;4964873;28;20623;-66
2023/08/26 01:27:07;;;;;;;2.43;2.20;;;22.30;99.90;;;22.81;100.00;100026.50;4994199;28;20806;-64
2023/08/26 01:29:35;;;;;;;2.03;1.93;;;22.30;99.90;;;22.78;100.00;100034.91;4962186;28;21220;-64
2023/08/26 01:32:07;;;;;;;2.73;2.53;;;22.30;99.90;;;22.74;100.00;100029.19;4967031;28;20644;-64
2023/08/26 01:34:38;;;;;;;2.00;1.90;;;22.30;99.90;;;22.74;100.00;100026.53;4962759;28;20697;-64
2023/08/26 01:37:09;;;;;;;2.50;2.40;;;22.20;99.90;;;22.77;100.00;100042.06;4965837;28;20635;-64
2023/08/26 01:39:36;;;;;;;2.33;2.00;;;22.20;99.90;;;22.77;100.00;100047.38;4945691;28;20656;-65
2023/08/26 01:42:06;;;;;;;2.47;2.37;;;22.30;99.90;;;22.80;100.00;100047.00;4966686;28;21034;-65
2023/08/26 01:44:33;;;;;;;3.30;2.80;;;22.30;99.90;;;22.92;100.00;100050.69;4961471;28;20643;-64
2023/08/26 01:47:00;;;;;;;4.93;3.30;;;22.30;99.90;;;22.97;100.00;100048.25;4966673;28;20639;-65
2023/08/26 01:49:27;;;;;;;3.23;2.60;;;22.40;99.90;;;22.98;100.00;100039.22;4959217;28;21031;-64
2023/08/26 01:51:54;;;;;;;2.37;2.27;;;22.40;99.90;;;22.97;100.00;100047.41;4967858;28;20734;-64
2023/08/26 01:54:21;;;;;;;3.63;3.00;;;22.40;99.90;;;22.90;100.00;100052.72;4979519;28;20635;-64
2023/08/26 01:56:48;;;;;;;2.77;2.57;;;22.40;99.90;;;22.91;100.00;100057.00;4962574;28;20666;-65
2023/08/26 01:59:15;;;;;;;2.87;2.47;;;22.40;99.90;;;22.91;100.00;100062.34;4964994;28;20651;-64
2023/08/26 02:01:41;;;;;;;3.50;3.20;;;22.40;99.90;;;22.90;100.00;100057.22;4960403;28;20671;-64
2023/08/26 02:04:09;;;;;;;2.23;2.13;;;22.40;99.90;;;22.86;100.00;100059.47;4964613;28;20642;-64
2023/08/26 02:06:40;;;;;;;3.70;2.67;;;22.30;99.90;;;22.82;100.00;100068.06;4958620;28;20651;-65
2023/08/26 02:09:07;;;;;;;2.10;1.97;;;22.30;99.90;;;22.73;100.00;100062.13;4964308;28;20769;-63
2023/08/26 02:11:34;;;;;;;2.33;2.23;;;22.20;99.90;;;22.70;99.67;100061.72;4954705;28;20659;-64
2023/08/26 02:14:01;;;;;;;4.40;3.07;;;22.20;99.90;;;22.65;99.86;100061.50;4959804;28;21071;-64
2023/08/26 02:16:28;;;;;;;2.43;2.33;;;22.10;99.90;;;22.60;99.65;100059.44;4965481;28;21220;-64
2023/08/26 02:18:58;;;;;;;2.60;2.50;;;22.10;99.90;;;22.54;100.00;100046.91;4964492;28;20654;-64
2023/08/26 02:21:25;;;;;;;2.80;2.60;;;22.00;99.90;;;22.52;100.00;100051.63;4967514;28;20669;-64
2023/08/26 02:23:52;;;;;;;3.07;2.87;;;22.00;99.90;;;22.50;100.00;100056.31;4965348;28;20678;-64
2023/08/26 02:26:18;;;;;;;3.30;3.00;;;22.00;99.90;;;22.54;100.00;100052.22;4967231;28;20635;-65
2023/08/26 02:28:45;;;;;;;3.33;2.60;;;22.00;99.90;;;22.56;100.00;100068.81;4962603;28;20678;-64
2023/08/26 02:31:12;;;;;;;2.80;2.37;;;22.00;99.90;;;22.56;98.84;100071.47;4962300;28;20716;-65
2023/08/26 02:33:39;;;;;;;3.03;2.77;;;22.00;99.90;;;22.55;99.10;100072.50;4962536;28;20650;-64
2023/08/26 02:36:06;;;;;;;4.00;3.60;;;22.00;99.90;;;22.55;98.49;100082.31;4966548;28;20718;-64
2023/08/26 02:38:33;;;;;;;3.20;2.87;;;22.00;99.90;;;22.55;98.11;100091.09;4963750;28;20642;-64
2023/08/26 02:41:01;;;;;;;4.27;3.40;;;22.00;99.90;;;22.52;97.74;100095.97;4967498;28;20643;-65
2023/08/26 02:43:28;;;;;;;3.67;2.73;;;22.00;99.90;;;22.51;98.55;100099.69;4964464;28;20682;-64
2023/08/26 02:45:56;;;;;;;4.20;3.20;;;22.00;99.90;;;22.53;98.70;100105.63;4967487;28;20724;-64
2023/08/26 02:48:25;;;;;;;3.50;2.47;;;22.00;99.90;;;22.55;99.12;100100.91;4963892;28;20663;-64
2023/08/26 02:51:00;;;;;;;3.33;2.87;;;22.00;99.90;;;22.56;98.93;100102.53;4974954;28;20732;-64
2023/08/26 02:53:30;;;;;;;3.03;2.10;;;22.00;99.90;;;22.58;98.67;100103.97;4966166;28;20623;-64
2023/08/26 02:55:57;;;;;;;3.67;3.00;;;22.10;99.90;;;22.61;98.32;100108.13;4967110;28;20625;-64
2023/08/26 02:58:25;;;;;;;2.43;2.33;;;22.10;99.90;;;22.63;98.25;100114.06;4966230;28;20637;-65
2023/08/26 03:00:55;;;;;;;3.27;2.97;;;22.10;99.90;;;22.61;97.96;100111.59;4964578;28;20702;-64
2023/08/26 03:03:22;;;;;;;3.63;2.80;;;22.10;99.90;;;22.63;97.45;100116.72;4966983;28;20718;-64
2023/08/26 03:05:49;;;;;;;3.13;2.83;;;22.10;99.90;;;22.63;97.19;100117.53;4960846;28;20646;-65
2023/08/26 03:08:16;;;;;;;3.70;2.50;;;22.10;99.90;;;22.62;97.08;100121.19;4963119;28;20679;-65
2023/08/26 03:10:43;;;;;;;4.60;2.30;;;22.10;99.90;;;22.62;96.45;100129.19;4962494;28;20674;-65
2023/08/26 03:13:10;;;;;;;2.73;2.53;;;22.10;99.90;;;22.63;96.21;100128.19;4970336;28;20685;-64
2023/08/26 03:15:37;;;;;;;2.60;2.40;;;22.10;99.90;;;22.63;95.10;100122.84;4967636;28;20722;-65
2023/08/26 03:18:04;;;;;;;2.93;2.57;;;22.10;99.90;;;22.65;93.74;100125.31;4978088;28;20646;-65
2023/08/26 03:20:32;;;;;;;3.50;3.20;;;22.10;99.90;;;22.62;93.88;100123.03;4968395;28;20647;-65
2023/08/26 03:22:59;;;;;;;2.60;2.47;;;22.10;99.90;;;22.61;94.28;100122.25;4965350;28;20646;-64
2023/08/26 03:25:26;;;;;;;4.00;3.20;;;22.10;99.90;;;22.59;93.87;100131.44;4970231;28;20727;-64
2023/08/26 03:27:53;;;;;;;2.60;2.40;;;22.10;99.90;;;22.58;93.07;100121.78;4966265;28;20695;-64
2023/08/26 03:30:20;;;;;;;2.50;2.23;;;22.10;99.90;;;22.54;92.87;100136.47;4970118;28;20629;-65
2023/08/26 03:32:47;;;;;;;2.90;2.70;;;22.00;99.90;;;22.50;92.50;100140.56;4966702;28;21308;-65
2023/08/26 03:35:14;;;;;;;2.47;2.33;;;22.00;99.90;;;22.48;92.65;100146.09;4972983;28;20666;-65
2023/08/26 03:37:41;;;;;;;2.87;2.67;;;22.00;99.90;;;22.48;92.18;100146.09;4962991;28;20650;-64
2023/08/26 03:40:09;;;;;;;2.80;2.60;;;22.00;99.90;;;22.47;91.54;100149.75;4969936;28;20667;-65
2023/08/26 03:42:35;;;;;;;4.07;2.70;;;22.00;99.90;;;22.47;91.81;100152.41;4966623;28;21556;-64
2023/08/26 03:45:04;;;;;;;4.60;3.10;;;22.00;99.90;;;22.48;91.62;100153.22;4970249;28;20632;-65
2023/08/26 03:47:32;;;;;;;2.67;2.47;;;22.00;99.90;;;22.47;91.78;100157.72;4966559;28;20674;-65
2023/08/26 03:50:00;;;;;;;2.40;2.20;;;22.00;99.90;;;22.47;91.92;100160.38;4969664;28;21118;-64
2023/08/26 03:52:27;;;;;;;2.77;2.57;;;22.00;99.90;;;22.46;91.69;100168.56;4966931;28;20745;-65
2023/08/26 03:54:55;;;;;;;2.63;2.43;;;22.00;99.90;;;22.44;90.09;100167.94;4965214;28;20647;-65
2023/08/26 03:57:22;;;;;;;3.20;2.67;;;22.00;99.90;;;22.39;89.81;100165.88;4969009;28;20635;-64
2023/08/26 03:59:49;;;;;;;6.20;2.60;;;21.90;99.90;;;22.37;89.89;100166.06;4967641;28;20747;-64
2023/08/26 04:02:16;;;;;;;2.43;2.20;;;21.90;99.90;;;22.33;89.56;100166.66;4967959;28;20690;-64
2023/08/26 04:04:43;;;;;;;2.13;1.80;;;21.80;99.90;;;22.28;88.63;100169.09;4967027;28;20631;-64
2023/08/26 04:07:10;;;;;;;2.13;1.90;;;21.80;99.90;;;22.24;88.27;100167.84;4970169;28;21223;-64
2023/08/26 04:09:37;;;;;;;2.67;2.50;;;21.80;99.90;;;22.19;89.27;100159.66;4963124;28;20761;-65
2023/08/26 04:12:04;;;;;;;3.90;2.70;;;21.70;99.90;;;22.17;89.72;100157.16;4958599;28;21252;-64
2023/08/26 04:14:31;;;;;;;3.10;2.77;;;21.70;99.90;;;22.15;89.94;100159.19;4966950;28;20643;-64
2023/08/26 04:16:58;;;;;;;6.57;2.30;;;21.70;99.90;;;22.15;90.06;100159.19;4967122;28;21084;-64
2023/08/26 04:19:25;;;;;;;3.37;2.40;;;21.70;99.90;;;22.16;90.26;100168.00;4967490;28;20647;-65
2023/08/26 04:21:52;;;;;;;2.10;1.97;;;21.70;99.90;;;22.14;90.13;100162.91;4968704;28;20754;-65
2023/08/26 04:24:19;;;;;;;2.10;1.97;;;21.60;99.90;;;22.10;89.46;100166.97;4958520;28;20640;-64
2023/08/26 04:26:46;;;;;;;13.67;3.90;;;21.60;99.90;;;22.11;89.26;100175.72;4965368;28;20643;-64
2023/08/26 04:29:13;;;;;;;2.47;2.23;;;21.60;99.90;;;22.08;89.50;100176.13;4966729;28;20740;-65
2023/08/26 04:31:40;;;;;;;3.57;2.80;;;21.60;99.90;;;22.07;89.55;100187.75;4968646;28;20763;-64
2023/08/26 04:34:06;;;;;;;3.57;2.70;;;21.60;99.90;;;22.05;89.67;100187.13;4966158;28;20638;-64
2023/08/26 04:36:33;;;;;;;2.90;1.93;;;21.60;99.90;;;22.03;89.22;100191.84;4968555;28;21085;-65
2023/08/26 04:39:00;;;;;;;2.93;2.70;;;21.60;99.90;;;22.03;89.12;100197.16;4963243;28;21235;-65
2023/08/26 04:41:27;;;;;;;3.33;2.43;;;21.50;99.90;;;21.98;89.18;100192.41;4968947;28;20763;-64
2023/08/26 04:43:54;;;;;;;4.03;3.00;;;21.50;99.90;;;21.98;88.96;100192.41;4966380;28;21220;-64
2023/08/26 04:46:21;;;;;;;2.20;2.10;;;21.50;99.90;;;22.01;88.98;100204.50;4966694;28;20995;-65
2023/08/26 04:48:50;;;;;;;2.10;1.97;;;21.50;99.90;;;21.97;88.11;100204.06;4967537;28;21101;-64
2023/08/26 04:51:17;;;;;;;1.60;1.60;;;21.50;99.90;;;22.01;87.00;100201.84;4965604;28;20712;-64
2023/08/26 04:53:44;;;;;;;2.37;2.20;;;21.60;99.90;;;21.97;87.19;100208.56;4968517;28;20623;-64
2023/08/26 04:56:11;;;;;;;2.20;2.10;;;21.50;99.90;;;21.95;87.37;100207.91;4966379;28;20635;-64
2023/08/26 04:58:38;;;;;;;1.77;1.70;;;21.50;99.90;;;21.94;87.35;100215.06;4965002;28;20750;-64
2023/08/26 05:01:05;;;;;;;1.87;1.77;;;21.50;99.90;;;21.91;87.27;100218.13;4966715;28;20671;-66
2023/08/26 05:03:32;;;;;;;3.53;2.40;;;21.50;99.90;;;21.90;87.42;100215.63;4965821;28;20640;-64
2023/08/26 05:05:59;;;;;;;2.40;2.20;;;21.50;99.90;;;21.88;87.63;100221.16;4965423;28;20639;-64
2023/08/26 05:08:26;;;;;;;4.60;1.90;;;21.40;99.90;;;21.88;86.89;100223.81;4967962;28;20671;-64
2023/08/26 05:10:53;;;;;;;2.47;2.07;;;21.40;99.90;;;21.89;87.00;100220.13;4974492;28;21055;-64
2023/08/26 05:13:20;;;;;;;1.80;1.70;;;21.40;99.90;;;21.90;87.07;100219.13;4966748;28;20688;-65
2023/08/26 05:15:47;;;;;;;2.70;2.03;;;21.40;99.90;;;21.94;87.07;100219.56;4960970;28;21099;-64
2023/08/26 05:18:16;;;;;;;2.30;2.20;;;21.50;99.90;;;22.06;86.96;100226.78;4961021;28;20639;-64
2023/08/26 05:20:46;;;;;;;3.57;1.73;;;21.50;99.90;;;22.23;86.36;100227.34;4966854;28;20651;-65
2023/08/26 05:23:14;;;;;;;2.23;2.13;;;21.70;99.90;;;22.47;85.29;100234.81;4963001;28;20807;-64
2023/08/26 05:25:45;;;;;;;1.77;1.67;;;21.90;99.90;;;22.65;84.25;100235.16;4962732;28;20643;-64
2023/08/26 05:28:13;;;;;;;3.30;2.00;;;22.10;99.90;;;22.87;82.89;100238.53;4965120;28;20728;-64
2023/08/26 05:30:40;;;;;;;2.43;2.23;;;22.30;99.90;;;22.92;81.84;100233.41;4957144;28;20640;-65
2023/08/26 05:33:07;;;;;;;1.50;1.50;;;22.40;99.90;;;22.99;80.50;100236.94;4967385;28;20726;-65
2023/08/26 05:35:34;;;;;;;1.90;1.80;;;22.40;99.90;;;23.22;78.28;100228.59;4963947;28;20712;-65
2023/08/26 05:38:01;;;;;;;2.83;1.60;;;22.60;99.90;;;23.46;74.48;100238.72;4967585;28;20641;-64
2023/08/26 05:40:29;;;;;;;1.40;1.40;;;22.80;99.90;;;23.68;70.56;100237.53;4965465;28;20708;-64
2023/08/26 05:42:57;;;;;;;1.27;1.27;;;23.00;99.90;;;23.88;69.51;100244.47;4966943;28;20736;-65
2023/08/26 05:45:27;;;;;;;1.43;1.43;;;23.30;99.90;;;24.17;66.87;100253.91;4963874;28;20639;-64
2023/08/26 05:47:54;;;;;;;1.00;1.00;;;23.60;99.90;;;24.45;64.22;100259.81;4970400;28;21388;-65
2023/08/26 05:50:22;;;;;;;1.33;1.30;;;23.90;99.90;;;24.78;64.27;100274.94;4964186;28;21224;-64
2023/08/26 05:52:49;;;;;;;1.80;1.60;;;24.20;99.90;;;25.13;63.05;100274.38;4967217;28;20767;-65
2023/08/26 05:55:16;;;;;;;1.37;1.37;;;24.50;99.90;;;25.50;60.53;100282.63;4966018;28;20766;-64
2023/08/26 05:57:43;;;;;;;1.77;1.67;;;24.80;99.90;;;25.79;58.11;100282.03;4966182;28;20730;-65
2023/08/26 06:00:11;;;;;;;3.57;1.40;;;25.20;99.90;;;25.84;57.72;100291.00;4959979;28;20650;-64
2023/08/26 06:02:38;;;;;;;1.30;1.20;;;25.20;99.90;;;25.68;56.82;100288.06;4966588;28;20683;-64
2023/08/26 06:05:06;;;;;;;1.30;1.20;;;25.10;99.90;;;25.27;57.34;100289.31;4964568;28;20631;-65
2023/08/26 06:07:33;;;;;;;1.00;1.00;;;24.80;99.90;;;24.85;56.89;100297.09;4966661;28;20658;-64
2023/08/26 06:10:00;;;;;;;1.37;1.27;;;24.40;99.90;;;24.35;56.28;100304.75;4962429;28;20707;-65
2023/08/26 06:12:27;;;;;;;1.10;1.10;;;23.90;99.90;;;24.00;57.37;100305.94;4967626;28;20651;-64
2023/08/26 06:14:54;;;;;;;1.10;1.10;;;23.60;99.90;;;23.73;56.95;100304.31;4964904;28;20663;-64
2023/08/26 06:17:20;;;;;;;1.00;1.00;;;23.30;99.90;;;23.55;58.35;100301.41;4967133;28;20643;-64
2023/08/26 06:19:47;;;;;;;1.17;1.07;;;23.10;99.90;;;23.33;58.09;100298.06;4964766;28;20742;-64
2023/08/26 06:22:14;;;;;;;0.70;0.70;;;22.90;99.90;;;23.13;58.15;100300.63;4965210;28;21059;-64
2023/08/26 06:24:41;;;;;;;1.50;0.80;;;22.70;99.90;;;22.99;57.45;100306.94;4965991;28;20643;-64
2023/08/26 06:27:08;;;;;;;1.00;0.90;;;22.50;99.90;;;22.83;57.63;100306.44;4964391;28;20643;-65
2023/08/26 06:29:35;;;;;;;0.90;0.90;;;22.40;99.90;;;22.72;58.20;100313.13;4960550;28;20671;-65
2023/08/26 06:32:02;;;;;;;1.03;1.03;;;22.30;99.90;;;22.60;58.58;100312.03;4965182;28;20759;-65
2023/08/26 06:34:29;;;;;;;0.77;0.77;;;22.20;99.90;;;22.54;59.25;100318.09;4966187;28;20636;-64
2023/08/26 06:36:56;;;;;;;0.90;0.90;;;22.10;99.90;;;22.44;59.47;100312.31;4964992;28;21277;-64
2023/08/26 06:39:23;;;;;;;0.70;0.70;;;22.00;99.90;;;22.40;59.83;100311.06;4968720;28;20696;-64
2023/08/26 06:41:50;;;;;;;1.17;0.77;;;21.90;99.90;;;22.35;59.85;100318.78;4967703;28;20662;-65
2023/08/26 06:44:17;;;;;;;0.83;0.83;;;21.90;99.90;;;22.35;60.09;100313.47;4967011;28;20696;-66
2023/08/26 06:46:44;;;;;;;1.03;0.80;;;21.90;99.90;;;22.36;60.37;100315.94;4968878;28;20831;-64
2023/08/26 06:49:11;;;;;;;2.20;1.00;;;21.90;99.90;;;22.37;60.62;100311.44;4995001;28;20663;-64
2023/08/26 06:51:37;;;;;;;1.33;0.90;;;21.90;99.90;;;22.38;60.11;100315.75;4969261;28;20713;-64
2023/08/26 06:54:05;;;;;;;1.77;0.90;;;21.90;99.90;;;22.30;60.32;100307.91;4963693;28;20681;-64
2023/08/26 06:56:31;;;;;;;2.20;1.37;;;21.80;99.90;;;22.29;61.08;100303.63;4969063;28;20667;-64
2023/08/26 06:58:58;;;;;;;0.80;0.80;;;21.80;99.90;;;22.34;60.82;100307.34;4965196;28;20647;-64
2023/08/26 07:01:25;;;;;;;1.13;0.90;;;21.80;99.90;;;22.36;60.52;100302.63;4965702;28;21301;-65
2023/08/26 07:03:53;;;;;;;1.47;1.07;;;21.90;99.90;;;22.37;59.65;100295.50;4968640;28;20650;-65
2023/08/26 07:06:21;;;;;;;0.90;0.77;;;21.90;99.90;;;22.40;59.64;100295.13;4970754;28;21130;-65
2023/08/26 07:08:48;;;;;;;0.80;0.80;;;21.90;99.90;;;22.42;59.38;100305.56;4969480;28;20767;-65
2023/08/26 07:11:15;;;;;;;1.10;1.10;;;21.90;99.90;;;22.42;59.40;100303.72;4969417;28;20662;-64
2023/08/26 07:13:42;;;;;;;1.43;0.80;;;21.90;99.90;;;22.44;59.47;100301.69;4968727;28;20659;-65
2023/08/26 07:16:09;;;;;;;0.73;0.73;;;21.90;99.90;;;22.50;60.29;100298.25;4969280;28;20623;-64
2023/08/26 07:18:36;;;;;;;0.90;0.90;;;22.00;99.90;;;22.54;60.45;100304.81;4965380;28;21097;-65
2023/08/26 07:21:03;;;;;;;0.77;0.77;;;22.00;99.90;;;22.55;60.18;100300.31;4995868;28;21087;-64
2023/08/26 07:23:30;;;;;;;3.03;1.27;;;22.00;99.90;;;22.53;60.39;100295.19;4972309;28;20674;-65
2023/08/26 07:25:57;;;;;;;0.87;0.87;;;22.00;99.90;;;22.49;60.04;100295.78;4969893;28;20623;-65
2023/08/26 07:28:24;;;;;;;0.77;0.77;;;22.00;99.90;;;22.44;59.92;100280.41;4966402;28;20733;-65
2023/08/26 07:30:54;;;;;;;0.90;0.90;;;22.00;99.90;;;22.47;60.67;100279.22;4967692;28;20650;-65
2023/08/26 07:33:21;;;;;;;1.23;1.23;;;22.00;99.90;;;22.50;61.00;100297.41;4959683;28;21067;-65
2023/08/26 07:35:48;;;;;;;0.90;0.90;;;22.00;99.90;;;22.49;60.72;100291.28;4967227;28;21027;-65
2023/08/26 07:38:14;;;;;;;0.90;0.90;;;22.00;99.90;;;22.50;60.89;100300.06;4967166;28;20767;-65
2023/08/26 07:40:41;;;;;;;1.00;1.00;;;22.00;99.90;;;22.48;61.13;100299.44;4967070;28;20675;-64
2023/08/26 07:43:08;;;;;;;1.00;1.00;;;22.00;99.90;;;22.46;61.40;100304.97;4969438;28;20631;-65
2023/08/26 07:45:35;;;;;;;1.60;1.50;;;22.00;99.90;;;22.49;61.84;100314.41;4967385;28;20731;-65
2023/08/26 07:48:02;;;;;;;1.90;0.87;;;22.00;99.90;;;22.46;61.71;100307.63;4962707;28;20646;-65
2023/08/26 07:50:32;;;;;;;0.80;0.80;;;22.00;99.90;;;22.44;62.04;100303.50;4964140;28;20773;-65
2023/08/26 07:52:59;;;;;;;1.20;1.10;;;21.90;99.90;;;22.42;62.45;100306.38;4968100;28;20660;-64
2023/08/26 07:55:26;;;;;;;0.90;0.90;;;21.90;99.90;;;22.40;62.60;100306.56;4967370;28;20639;-64
2023/08/26 07:57:53;;;;;;;1.43;1.23;;;21.90;99.90;;;22.42;62.38;100302.88;4968365;28;20635;-64
2023/08/26 08:00:20;;;;;;;1.40;1.40;;;21.90;99.90;;;22.46;62.82;100309.47;4962474;28;20974;-66
2023/08/26 08:02:47;;;;;;;0.90;0.90;;;22.00;99.90;;;22.44;62.57;100317.63;4967864;28;21231;-65
2023/08/26 08:05:14;;;;;;;1.27;1.17;;;21.90;99.90;;;22.39;62.77;100320.03;4964529;28;20634;-67
2023/08/26 08:07:41;;;;;;;2.07;1.20;;;21.90;99.90;;;22.31;63.25;100307.75;4973040;28;20651;-66
2023/08/26 08:10:08;;;;;;;1.50;1.40;;;21.80;99.90;;;22.25;62.85;100307.69;4960797;28;20839;-65
2023/08/26 08:12:35;;;;;;;0.87;0.87;;;21.80;99.90;;;22.14;63.17;100310.88;4961414;28;20748;-66
2023/08/26 08:15:03;;;;;;;0.77;0.77;;;21.70;99.90;;;22.10;61.71;100310.44;4964539;28;20643;-65
2023/08/26 08:17:31;;;;;;;1.07;1.07;;;21.70;99.90;;;22.05;60.48;100317.31;4968934;28;20642;-65
2023/08/26 08:19:58;;;;;;;0.97;0.97;;;21.60;99.90;;;22.06;60.36;100313.66;4963833;28;20742;-65
2023/08/26 08:22:37;;;;;;;0.93;0.93;;;21.60;99.90;;;22.08;60.58;100319.59;4964863;28;20865;-65
2023/08/26 08:25:05;;;;;;;1.40;1.30;;;21.60;99.90;;;22.16;60.54;100303.53;4965454;28;20658;-65
2023/08/26 08:27:32;;;;;;;0.80;0.80;;;21.70;99.90;;;22.26;60.33;100325.25;4966304;28;20716;-64
2023/08/26 08:29:59;;;;;;;11.93;6.00;;;21.70;99.90;;;22.37;60.38;100322.91;4965318;28;20671;-65
2023/08/26 08:32:27;;;;;;;6.63;4.37;;;21.90;99.90;;;22.46;58.59;100320.09;4963296;28;21465;-65
2023/08/26 08:34:55;;;;;;;2.33;2.13;;;22.00;99.90;;;22.49;58.64;100323.19;4967599;28;20623;-65
2023/08/26 08:37:22;;;;;;;1.00;1.00;;;22.00;99.90;;;22.45;58.51;100319.25;4965923;28;20639;-68
2023/08/26 08:39:49;;;;;;;1.20;1.10;;;22.00;99.90;;;22.44;58.97;100317.63;4967407;28;20667;-67
2023/08/26 08:42:17;;;;;;;1.00;0.93;;;21.90;99.90;;;22.46;58.51;100322.75;4961706;28;20691;-68
2023/08/26 08:44:46;;;;;;;1.13;1.03;;;21.90;99.90;;;22.40;56.79;100327.03;4964380;28;20643;-68
2023/08/26 08:47:14;;;;;;;0.50;0.50;;;21.90;99.90;;;22.36;56.16;100325.72;4967410;28;20639;-64
2023/08/26 08:49:46;;;;;;;0.70;0.70;;;21.90;99.90;;;22.35;56.13;100324.94;4965906;28;20710;-63
2023/08/26 08:52:13;;;;;;;1.10;0.70;;;21.90;99.90;;;22.39;56.22;100318.22;4967087;28;20651;-62
2023/08/26 08:54:40;;;;;;;0.67;0.67;;;21.90;99.90;;;22.57;55.69;100324.88;4964833;28;20689;-64
2023/08/26 08:57:12;;;;;;;1.30;0.87;;;22.00;99.90;;;22.73;55.22;100328.06;4966677;28;20631;-64
2023/08/26 08:59:41;;;;;;;1.23;1.10;;;22.20;99.90;;;22.88;54.27;100328.78;4964323;28;20696;-63
2023/08/26 09:02:11;;;;;;;0.63;0.63;;;22.30;99.90;;;23.10;53.29;100335.66;4967270;28;21274;-64
2023/08/26 09:04:38;;;;;;;0.70;0.70;;;22.50;99.90;;;23.33;52.43;100332.69;4965124;28;21033;-64
2023/08/26 09:07:09;;;;;;;0.60;0.60;;;22.80;99.90;;;23.45;51.79;100325.75;4966650;28;21192;-62
2023/08/26 09:09:37;;;;;;;0.70;0.70;;;22.90;99.90;;;23.46;51.62;100329.25;4966330;28;20681;-63
2023/08/26 09:12:22;;;;;;;0.60;0.60;;;22.90;99.90;;;23.57;51.37;100332.16;4968563;28;20652;-64
2023/08/26 09:14:48;;;;;;;1.17;0.77;;;23.00;99.90;;;23.75;50.86;100323.56;4965584;28;20740;-63
2023/08/26 09:17:17;;;;;;;0.80;0.73;;;23.20;99.90;;;23.91;50.55;100312.53;4966735;28;20772;-63
2023/08/26 09:19:59;;;;;;;0.60;0.60;;;23.40;99.90;;;24.11;49.14;100313.38;4997907;28;20631;-64
2023/08/26 09:22:31;;;;;;;0.70;0.67;;;23.60;99.90;;;24.27;49.37;100312.97;4966604;28;21695;-63
2023/08/26 09:25:01;;;;;;;0.70;0.70;;;23.70;99.90;;;24.42;49.44;100310.91;4966196;28;20639;-64
2023/08/26 09:27:29;;;;;;;0.80;0.80;;;23.90;99.90;;;24.58;49.23;100310.47;4967201;28;20631;-64
2023/08/26 09:29:56;;;;;;;0.70;0.70;;;24.00;99.90;;;24.66;48.22;100302.22;4962469;28;20675;-63
2023/08/26 09:32:39;;;;;;;0.63;0.63;;;24.10;99.90;;;24.83;48.17;100304.47;4965406;28;20774;-64
2023/08/26 09:35:16;;;;;;;0.50;0.50;;;24.30;99.70;;;25.10;47.87;100306.00;4958995;28;20684;-64
2023/08/26 09:38:04;;;;;;;0.70;0.70;;;24.60;99.20;;;25.40;46.86;100293.75;4965682;28;20630;-64
2023/08/26 09:40:32;;;;;;;1.10;1.00;;;24.90;98.60;;;25.71;46.17;100296.44;4963797;28;21521;-63
2023/08/26 09:43:03;;;;;;;0.80;0.60;;;25.10;98.00;;;25.88;44.49;100292.22;4967434;28;20639;-64
2023/08/26 09:45:36;;;;;;;0.80;0.80;;;25.40;96.50;;;25.92;45.03;100292.59;4963688;28;20674;-64
2023/08/26 09:48:05;;;;;;;0.70;0.70;;;25.50;96.40;;;26.09;44.67;100291.88;4963203;28;20643;-64
2023/08/26 09:50:33;;;;;;;1.07;0.70;;;25.60;96.10;;;26.24;43.60;100290.72;4964956;28;20683;-64
2023/08/26 09:53:00;;;;;;;0.80;0.80;;;25.70;95.10;;;26.36;42.96;100283.59;4964331;28;20635;-64
2023/08/26 09:55:28;;;;;;;0.80;0.80;;;25.80;94.50;;;26.49;43.62;100281.59;4959317;28;21279;-63
2023/08/26 09:57:56;;;;;;;2.73;0.70;;;25.90;94.60;;;26.52;43.85;100283.84;4964435;28;20640;-64
2023/08/26 10:00:24;;;;;;;0.73;0.73;;;26.00;94.60;;;26.43;44.68;100297.75;4955924;28;20654;-64
2023/08/26 10:02:53;;;;;;;1.20;0.87;;;25.90;94.90;;;26.28;44.85;100287.38;4964937;28;20694;-64
2023/08/26 10:05:25;;;;;;;1.13;0.73;;;25.80;94.90;;;26.09;44.85;100283.84;4961491;28;20728;-65
2023/08/26 10:07:53;;;;;;;0.70;0.70;;;25.70;94.70;;;25.97;44.96;100290.91;4964529;28;20749;-64
2023/08/26 10:10:53;;;;;;;0.80;0.80;;;25.50;94.60;;;25.91;45.76;100290.97;4955483;28;20682;-64
2023/08/26 10:13:25;;;;;;;0.60;0.60;;;25.40;95.00;;;25.97;45.85;100296.25;4948201;28;20671;-64
2023/08/26 10:15:55;;;;;;;0.63;0.63;;;25.40;95.10;;;25.97;45.54;100295.44;4964968;28;21270;-63
2023/08/26 10:18:43;;;;;;;0.60;0.60;;;25.40;94.80;;;26.01;46.11;100297.47;4960905;28;20661;-62